FW6983 Weather Reports


time (UTC)temp
F
wind
direction
speed
knots
gust
knots
rain 1hr
in
rain 24hr
in
rain mn
in
humidity
%
barometer
mb
20260505153106 71 136 0.9 8.7 0.00 0.00 0.00 51 1018.0
20260505151552 70 0 1.7 7.0 0.00 0.00 0.00 51 1018.2
20260505150108 70 223 2.6 6.1 0.00 0.00 0.00 51 1018.3
20260505140104 66 0 0.0 2.6 0.00 0.00 0.00 58 1018.0
20260505124559 52 0 0.0 0.0 0.00 0.00 0.00 92 1017.6
20260505123109 50 0 0.0 0.0 0.00 0.00 0.00 92 1017.8
20260505121550 47 0 0.0 0.9 0.00 0.00 0.00 92 1017.7
20260505120053 45 0 0.0 0.0 0.00 0.00 0.00 91 1017.6
20260505114600 44 0 0.0 0.0 0.00 0.00 0.00 91 1017.4
20260505113052 42 0 0.0 0.0 0.00 0.00 0.00 89 1017.4
20260505111556 42 0 0.0 0.0 0.00 0.00 0.00 89 1017.6
20260505101550 43 0 0.0 0.0 0.00 0.00 0.00 88 1017.3
20260505100045 43 0 0.0 0.0 0.00 0.00 0.00 88 1017.2
20260505094550 44 0 0.0 0.0 0.00 0.00 0.00 87 1017.1
20260505093050 44 0 0.0 0.0 0.00 0.00 0.00 88 1017.1
20260505091548 44 0 0.0 0.0 0.00 0.00 0.00 87 1017.0
20260505090052 45 0 0.0 0.0 0.00 0.00 0.00 87 1016.8
20260505084544 45 0 0.0 0.0 0.00 0.00 0.00 87 1016.9
20260505083046 45 0 0.0 0.0 0.00 0.00 0.00 87 1016.5
20260505081554 45 0 0.0 0.0 0.00 0.00 0.00 87 1016.2
20260505080053 46 0 0.0 0.0 0.00 0.00 0.00 86 1016.3
20260505074545 46 0 0.0 0.0 0.00 0.00 0.00 86 1016.1
20260505073057 46 0 0.0 0.0 0.00 0.00 0.00 86 1016.2
20260505071544 47 0 0.0 0.0 0.00 0.00 0.00 85 1016.4
20260505070054 47 0 0.0 0.0 0.00 0.00 0.00 85 1016.4
20260505064548 47 0 0.0 0.0 0.00 0.00 0.00 84 1016.5
20260505063045 48 0 0.0 0.0 0.00 0.00 0.00 84 1016.7
20260505061547 48 0 0.0 0.0 0.00 0.00 0.00 84 1016.8
20260505060047 49 0 0.0 0.0 0.00 0.00 0.00 83 1016.8
20260505054551 49 0 0.0 0.0 0.00 0.00 0.00 83 1016.7
20260505053048 50 0 0.0 0.0 0.00 0.00 0.00 82 1016.8
20260505051546 50 0 0.0 0.0 0.00 0.00 0.00 82 1016.9
20260505050124 51 0 0.0 0.0 0.00 0.00 0.00 80 1016.9
20260505041555 52 0 0.0 0.0 0.00 0.00 0.00 78 1016.9
20260505040059 53 0 0.0 0.0 0.00 0.00 0.00 78 1017.1
20260505034548 53 0 0.0 1.7 0.00 0.00 0.00 77 1017.1
20260505033049 54 198 0.0 1.7 0.00 0.00 0.00 75 1017.1
20260505031549 55 0 0.0 0.0 0.00 0.00 0.00 73 1017.1
20260505030045 56 0 0.0 0.0 0.00 0.00 0.00 72 1017.1
20260505024543 57 0 0.0 0.0 0.00 0.00 0.00 70 1017.0
20260505023048 58 0 0.0 0.0 0.00 0.00 0.00 68 1017.0
20260505021543 59 0 0.0 0.0 0.00 0.00 0.00 66 1016.7
20260505020049 60 0 0.0 0.0 0.00 0.00 0.00 64 1016.7
20260505014603 61 0 0.0 0.0 0.00 0.00 0.00 63 1016.6
20260505013050 62 0 0.0 0.0 0.00 0.00 0.00 61 1016.3
20260505011548 63 0 0.0 0.0 0.00 0.00 0.00 59 1016.1
20260505010052 64 0 0.0 0.0 0.00 0.00 0.00 57 1016.1
20260505004549 65 0 0.0 0.9 0.00 0.00 0.00 55 1016.0
20260505003049 67 0 0.0 1.7 0.00 0.00 0.00 53 1015.8
20260505001602 68 0 0.0 0.0 0.00 0.00 0.00 49 1015.8
20260505000104 70 0 0.0 0.9 0.00 0.00 0.00 48 1015.5
20260504234606 72 198 0.0 1.7 0.00 0.00 0.00 45 1015.6
20260504233050 74 0 0.0 3.5 0.00 0.00 0.00 41 1015.4
20260504231543 75 161 0.9 5.2 0.00 0.00 0.00 37 1015.3
20260504230047 75 217 0.9 3.5 0.00 0.00 0.00 38 1015.2
20260504224603 76 0 0.9 7.8 0.00 0.00 0.00 40 1015.2
20260504223046 76 121 0.9 6.1 0.00 0.00 0.00 38 1015.2
20260504221547 77 113 1.7 7.0 0.00 0.00 0.00 36 1015.3
20260504220047 76 55 0.0 6.1 0.00 0.00 0.00 35 1015.2
20260504214548 77 83 0.9 7.0 0.00 0.00 0.00 36 1015.2
20260504213104 77 0 2.6 8.7 0.00 0.00 0.00 34 1015.1
20260504211545 77 291 1.7 9.6 0.00 0.00 0.00 34 1015.1
20260504210044 79 219 1.7 6.1 0.00 0.00 0.00 33 1015.2
20260504204548 79 136 0.9 4.3 0.00 0.00 0.00 33 1015.3
20260504203056 79 211 0.9 5.2 0.00 0.00 0.00 33 1015.3
20260504201543 78 33 1.7 7.8 0.00 0.00 0.00 34 1015.4
20260504200049 79 240 2.6 7.0 0.00 0.00 0.00 32 1015.5
20260504194559 78 234 1.7 7.0 0.00 0.00 0.00 29 1015.6
20260504193058 78 232 3.5 7.8 0.00 0.00 0.00 30 1015.8
20260504191553 78 200 3.5 7.8 0.00 0.00 0.00 27 1016.0
20260504190112 79 209 1.7 9.6 0.00 0.00 0.00 26 1016.2
20260504184559 79 281 0.9 7.0 0.00 0.00 0.00 28 1016.4
20260504183052 79 67 1.7 6.1 0.00 0.00 0.00 27 1016.6
20260504181546 78 261 1.7 5.2 0.00 0.00 0.00 29 1016.8
20260504180049 77 248 0.9 4.3 0.00 0.00 0.00 29 1016.8
20260504174551 76 5 0.9 4.3 0.00 0.00 0.00 29 1017.1
20260504173051 77 54 0.9 4.3 0.00 0.00 0.00 29 1017.2
20260504171547 76 304 0.9 5.2 0.00 0.00 0.00 28 1017.3